Time;durP1;ratioP1;P1;durP2;ratioP2;P2;SDS_P1;SDS_P2;PMS_P1;PMS_P2;Temp;Humidity;BMP_temperature;BMP_pressure;BME280_temperature;BME280_humidity;BME280_pressure;Samples;Min_cycle;Max_cycle;Signal;HPM_P1;HPM_P2
2021/03/03 00:01:23;;;;;;;19.90;9.30;;;;;;;1.90;68.07;98222.97;5085469;28;20398;-64
2021/03/03 00:03:49;;;;;;;15.32;7.43;;;;;;;1.22;69.08;98162.84;5105858;28;20386;-66
2021/03/03 00:06:18;;;;;;;16.20;7.22;;;;;;;1.17;68.78;98165.59;5090210;28;20035;-66
2021/03/03 00:08:46;;;;;;;19.27;8.95;;;;;;;1.13;69.76;98170.00;5107905;28;20054;-65
2021/03/03 00:11:18;;;;;;;18.48;8.40;;;;;;;1.55;69.18;98238.50;5090221;28;20042;-66
2021/03/03 00:13:43;;;;;;;16.25;6.97;;;;;;;1.41;70.34;98218.41;5107977;28;20028;-66
2021/03/03 00:16:09;;;;;;;14.45;6.72;;;;;;;1.37;69.99;98228.28;5107880;28;20093;-65
2021/03/03 00:18:37;;;;;;;15.43;7.22;;;;;;;1.58;69.32;98235.22;5108756;28;20519;-66
2021/03/03 00:21:05;;;;;;;17.17;9.70;;;;;;;0.86;67.56;98096.00;5107920;28;20063;-66
2021/03/03 00:23:31;;;;;;;21.08;10.40;;;;;;;1.75;68.54;98225.81;5089440;28;20518;-65
2021/03/03 00:25:56;;;;;;;18.63;8.52;;;;;;;1.39;66.76;98168.72;5107367;28;20023;-66
2021/03/03 00:28:22;;;;;;;22.17;9.20;;;;;;;1.64;67.37;98199.69;5107721;28;20051;-64
2021/03/03 00:30:48;;;;;;;25.90;11.60;;;;;;;1.72;68.88;98221.75;5089228;28;20024;-65
2021/03/03 00:33:14;;;;;;;23.80;9.43;;;;;;;1.68;67.72;98226.13;5107673;28;20061;-65
2021/03/03 00:35:41;;;;;;;18.23;8.38;;;;;;;1.22;68.96;98146.47;5106792;28;20569;-64
2021/03/03 00:38:10;;;;;;;21.88;9.35;;;;;;;1.58;68.77;98214.47;5107325;28;20062;-66
2021/03/03 00:40:35;;;;;;;19.92;9.68;;;;;;;1.54;69.53;98209.59;5107829;28;20030;-64
2021/03/03 00:43:01;;;;;;;16.17;7.50;;;;;;;1.46;68.50;98199.28;5107534;28;20032;-65
2021/03/03 00:45:27;;;;;;;17.48;8.88;;;;;;;0.75;69.30;98083.50;5107313;28;20349;-66
2021/03/03 00:47:53;;;;;;;12.98;7.22;;;;;;;1.53;69.59;98218.06;5107175;28;20471;-65
2021/03/03 00:50:18;;;;;;;10.95;5.68;;;;;;;1.24;69.64;98177.03;5106656;28;20027;-63
2021/03/03 00:52:44;;;;;;;11.00;5.70;;;;;;;1.30;69.87;98200.47;5107002;28;20073;-63
2021/03/03 00:55:12;;;;;;;19.25;8.30;;;;;;;1.21;69.61;98209.53;5106422;28;20016;-63
2021/03/03 00:57:41;;;;;;;11.23;6.25;;;;;;;1.17;71.17;98206.53;5088706;28;20035;-64
2021/03/03 01:00:08;;;;;;;14.80;6.70;;;;;;;1.06;71.16;98217.81;5106791;28;20023;-64
2021/03/03 01:02:34;;;;;;;16.50;9.45;;;;;;;1.10;70.40;98186.94;5107485;28;20466;-65
2021/03/03 01:05:00;;;;;;;18.75;10.40;;;;;;;1.18;71.43;98210.09;5106785;28;20055;-65
2021/03/03 01:07:25;;;;;;;17.85;8.27;;;;;;;0.85;70.57;98145.34;5088435;28;20516;-64
2021/03/03 01:09:51;;;;;;;15.88;6.63;;;;;;;1.21;70.88;98199.44;5106823;28;20052;-65
2021/03/03 01:12:17;;;;;;;20.13;8.10;;;;;;;1.13;71.19;98183.66;5088198;28;20039;-65
2021/03/03 01:14:42;;;;;;;13.93;7.18;;;;;;;1.36;70.74;98206.69;5106729;28;20033;-65
2021/03/03 01:17:08;;;;;;;16.17;9.10;;;;;;;0.49;70.46;98068.38;5106365;28;20083;-64
2021/03/03 01:19:34;;;;;;;14.50;6.22;;;;;;;0.38;71.40;98058.63;5088247;28;20034;-65
2021/03/03 01:22:00;;;;;;;15.07;6.10;;;;;;;1.19;70.46;98174.34;5106656;28;20032;-65
2021/03/03 01:24:26;;;;;;;16.48;6.55;;;;;;;1.33;70.63;98199.91;5088461;28;20472;-66
2021/03/03 01:26:51;;;;;;;18.70;6.90;;;;;;;0.98;71.86;98134.63;5106518;28;20885;-63
2021/03/03 01:29:17;;;;;;;13.75;5.78;;;;;;;1.19;71.14;98196.16;5106315;28;20553;-63
2021/03/03 01:31:45;;;;;;;12.55;6.05;;;;;;;1.25;70.16;98208.69;5106368;28;20051;-65
2021/03/03 01:34:10;;;;;;;16.05;6.57;;;;;;;1.17;71.75;98181.97;5106495;28;20508;-63
2021/03/03 01:36:36;;;;;;;14.07;6.10;;;;;;;0.69;71.55;98114.63;5106117;28;20032;-63
2021/03/03 01:39:03;;;;;;;16.83;7.43;;;;;;;1.25;70.85;98195.03;5087869;28;20477;-64
2021/03/03 01:41:28;;;;;;;18.80;8.90;;;;;;;1.18;72.74;98188.28;5087803;28;20031;-63
2021/03/03 01:43:54;;;;;;;13.77;6.65;;;;;;;1.00;72.82;98186.19;5088260;28;20063;-64
2021/03/03 01:46:20;;;;;;;13.88;6.75;;;;;;;0.95;72.80;98159.75;5106196;28;20379;-63
2021/03/03 01:48:45;;;;;;;10.82;5.68;;;;;;;0.60;71.44;98121.75;5087560;28;20422;-64
2021/03/03 01:51:13;;;;;;;14.25;6.68;;;;;;;0.89;71.75;98152.69;5087932;28;20110;-65
2021/03/03 01:53:39;;;;;;;19.65;7.95;;;;;;;1.09;71.73;98207.13;5087401;28;20027;-63
2021/03/03 01:56:05;;;;;;;20.65;9.60;;;;;;;0.13;72.84;98038.91;5105861;28;20398;-64
2021/03/03 01:58:31;;;;;;;20.10;10.57;;;;;;;1.10;74.26;98197.88;5105730;28;20114;-64
2021/03/03 02:00:59;;;;;;;17.20;8.35;;;;;;;1.05;74.87;98199.78;5106036;28;20044;-65
2021/03/03 02:03:25;;;;;;;16.42;8.88;;;;;;;1.12;74.46;98201.09;5087582;28;20434;-64
2021/03/03 02:05:57;;;;;;;15.15;6.88;;;;;;;1.10;73.08;98208.78;5087158;28;20772;-65
2021/03/03 02:08:32;;;;;;;22.98;9.80;;;;;;;1.10;72.97;98203.31;5105485;28;20089;-67
2021/03/03 02:11:09;;;;;;;22.17;9.45;;;;;;;1.04;74.15;98174.41;5105818;28;20112;-67
2021/03/03 02:13:57;;;;;;;17.63;8.18;;;;;;;0.88;74.51;98226.63;5087274;28;20035;-67
2021/03/03 02:16:23;;;;;;;18.02;7.75;;;;;;;0.83;75.32;98213.00;5087245;28;20110;-66
2021/03/03 02:18:49;;;;;;;15.77;6.63;;;;;;;0.93;74.14;98191.13;5106124;28;20067;-66
2021/03/03 02:21:30;;;;;;;18.08;6.38;;;;;;;1.03;73.00;98189.16;5105276;28;20046;-66
2021/03/03 02:24:26;;;;;;;18.40;7.82;;;;;;;0.94;73.96;98181.84;5105600;28;20032;-66
2021/03/03 02:26:53;;;;;;;16.73;6.13;;;;;;;0.68;74.62;98210.34;5100367;28;20040;-66
2021/03/03 02:29:24;;;;;;;16.95;8.38;;;;;;;0.46;76.79;98167.06;5105307;28;20100;-66
2021/03/03 02:31:52;;;;;;;15.27;6.80;;;;;;;0.87;76.00;98195.78;5104505;28;20512;-66
2021/03/03 02:34:20;;;;;;;13.05;7.93;;;;;;;0.87;75.99;98190.34;5104989;28;20518;-63
2021/03/03 02:36:47;;;;;;;12.07;6.40;;;;;;;0.75;75.30;98178.94;5105715;28;20023;-64
2021/03/03 02:39:14;;;;;;;15.50;7.93;;;;;;;0.87;75.58;98198.50;5105406;28;20028;-64
2021/03/03 02:41:42;;;;;;;18.50;8.57;;;;;;;0.79;74.70;98179.22;5103543;28;20066;-63
2021/03/03 02:44:08;;;;;;;21.42;9.88;;;;;;;0.87;74.92;98209.41;5103360;28;20046;-64
2021/03/03 02:46:35;;;;;;;26.48;11.27;;;;;;;1.03;74.01;98207.44;5104891;28;20062;-63
2021/03/03 02:49:02;;;;;;;22.00;10.25;;;;;;;1.00;74.11;98206.09;5104537;28;20038;-65
2021/03/03 02:51:28;;;;;;;20.73;9.70;;;;;;;1.02;73.68;98212.09;5086502;28;20062;-64
2021/03/03 02:53:53;;;;;;;22.23;9.25;;;;;;;1.04;73.07;98215.34;5086308;28;20036;-64
2021/03/03 02:56:19;;;;;;;20.38;10.05;;;;;;;0.95;73.86;98222.47;5104662;28;20031;-64
2021/03/03 02:58:45;;;;;;;23.63;10.77;;;;;;;1.02;72.63;98217.56;5086447;28;20118;-65
2021/03/03 03:01:14;;;;;;;24.45;11.65;;;;;;;0.76;73.63;98179.78;5104430;28;20032;-63
2021/03/03 03:03:55;;;;;;;24.52;10.02;;;;;;;0.47;74.02;98152.34;5086078;28;20032;-64
2021/03/03 03:06:32;;;;;;;31.17;11.07;;;;;;;0.69;73.19;98196.44;5104661;28;20099;-63
2021/03/03 03:09:01;;;;;;;20.52;9.55;;;;;;;0.88;73.80;98227.44;5085759;28;20077;-63
2021/03/03 03:11:30;;;;;;;21.70;9.65;;;;;;;0.90;74.59;98214.31;5104244;28;20493;-64
2021/03/03 03:14:04;;;;;;;20.80;7.63;;;;;;;0.91;73.15;98248.69;5086002;28;20924;-63
2021/03/03 03:16:31;;;;;;;20.40;8.32;;;;;;;0.73;74.01;98246.56;5082647;28;20059;-63
2021/03/03 03:18:59;;;;;;;22.63;10.27;;;;;;;0.77;73.78;98214.94;5084598;28;20040;-64
2021/03/03 03:21:29;;;;;;;17.85;7.90;;;;;;;0.21;73.71;98145.34;5065837;28;20049;-63
2021/03/03 03:23:57;;;;;;;16.45;7.82;;;;;;;0.52;75.88;98195.13;5084301;28;20030;-65
2021/03/03 03:26:27;;;;;;;15.73;7.32;;;;;;;-0.24;74.74;98118.25;5082694;28;20047;-65
2021/03/03 03:28:53;;;;;;;20.17;8.73;;;;;;;-0.60;76.78;98079.34;5065382;28;20410;-65
2021/03/03 03:31:20;;;;;;;22.70;9.82;;;;;;;0.35;76.95;98200.88;5083609;28;20027;-64
2021/03/03 03:33:46;;;;;;;18.83;7.88;;;;;;;-0.10;75.99;98122.03;5084000;28;20109;-63
2021/03/03 03:36:11;;;;;;;19.77;8.43;;;;;;;0.31;76.20;98210.72;5083563;28;20474;-64
2021/03/03 03:38:37;;;;;;;22.73;11.55;;;;;;;0.58;76.05;98222.09;5082902;28;20624;-64
2021/03/03 03:41:07;;;;;;;17.65;7.30;;;;;;;0.72;74.60;98239.50;5083786;28;20065;-64
2021/03/03 03:43:34;;;;;;;22.15;8.85;;;;;;;0.57;74.92;98209.53;5083887;28;20040;-63
2021/03/03 03:46:01;;;;;;;30.25;17.17;;;;;;;-0.91;75.70;97968.16;5065490;28;20107;-63
2021/03/03 03:48:28;;;;;;;24.08;10.75;;;;;;;0.10;75.27;98105.63;5083496;28;20100;-64
2021/03/03 03:50:55;;;;;;;30.80;15.10;;;;;;;0.59;75.23;98180.09;5083836;28;20039;-65
2021/03/03 03:53:22;;;;;;;24.65;13.45;;;;;;;0.73;74.20;98197.50;5065462;28;20043;-65
2021/03/03 03:55:48;;;;;;;34.40;15.35;;;;;;;0.90;74.67;98219.78;5083584;28;20055;-65
2021/03/03 03:58:13;;;;;;;39.00;19.13;;;;;;;1.04;73.32;98237.16;5083967;28;20787;-65
2021/03/03 04:00:39;;;;;;;34.55;16.48;;;;;;;0.91;74.20;98232.34;5065373;28;20035;-67
2021/03/03 04:03:05;;;;;;;30.00;12.85;;;;;;;0.31;73.00;98155.41;5065341;28;20036;-67
2021/03/03 04:05:31;;;;;;;27.55;13.05;;;;;;;0.91;73.92;98232.34;5082936;28;20046;-65
2021/03/03 04:07:57;;;;;;;21.73;10.23;;;;;;;0.90;73.31;98244.31;5083421;28;20043;-65
2021/03/03 04:10:29;;;;;;;22.38;10.35;;;;;;;0.88;73.99;98242.97;5064567;28;20028;-64
2021/03/03 04:12:55;;;;;;;28.42;15.07;;;;;;;0.92;73.76;98239.41;5083169;28;20461;-67
2021/03/03 04:15:22;;;;;;;26.55;13.30;;;;;;;0.75;74.35;98198.03;5066442;28;20028;-66
2021/03/03 04:17:48;;;;;;;27.77;14.55;;;;;;;0.72;75.29;98201.31;5103746;28;20426;-68
2021/03/03 04:20:15;;;;;;;31.65;15.05;;;;;;;0.89;75.03;98231.78;5103539;28;20081;-65
2021/03/03 04:22:42;;;;;;;29.75;15.93;;;;;;;0.43;74.59;98158.66;5085270;28;20043;-65
2021/03/03 04:25:10;;;;;;;31.10;15.10;;;;;;;0.46;74.80;98174.44;5103522;28;20068;-66
2021/03/03 04:27:37;;;;;;;36.70;17.17;;;;;;;0.66;75.62;98207.91;5084913;28;20362;-65
2021/03/03 04:30:04;;;;;;;30.92;17.20;;;;;;;0.54;75.37;98206.56;5103532;28;20068;-64
2021/03/03 04:32:30;;;;;;;27.95;13.85;;;;;;;0.52;75.21;98223.19;5084717;28;20499;-66
2021/03/03 04:34:55;;;;;;;23.60;12.65;;;;;;;0.89;73.72;98256.34;5085622;28;20038;-65
2021/03/03 04:37:21;;;;;;;21.23;9.00;;;;;;;0.01;74.08;98150.84;5085429;28;20040;-64
2021/03/03 04:39:49;;;;;;;16.30;7.35;;;;;;;0.88;73.64;98264.78;5103261;28;20577;-65
2021/03/03 04:42:15;;;;;;;15.45;6.10;;;;;;;0.80;73.70;98273.53;5084874;28;20039;-66
2021/03/03 04:44:41;;;;;;;17.10;8.93;;;;;;;0.78;72.95;98271.09;5084947;28;20059;-65
2021/03/03 04:47:07;;;;;;;19.45;9.57;;;;;;;0.71;73.13;98232.38;5085003;28;20114;-66
2021/03/03 04:49:33;;;;;;;19.52;9.07;;;;;;;0.78;73.19;98264.81;5086069;28;20038;-66
2021/03/03 04:51:59;;;;;;;17.95;9.23;;;;;;;1.01;72.98;98275.91;5106856;28;20042;-67
2021/03/03 04:54:25;;;;;;;15.57;7.50;;;;;;;0.99;73.58;98288.22;5105751;28;20027;-66
2021/03/03 04:56:50;;;;;;;25.85;11.02;;;;;;;1.09;72.58;98272.59;5106667;28;20032;-65
2021/03/03 04:59:16;;;;;;;22.88;9.95;;;;;;;0.97;71.82;98236.66;5106986;28;20467;-67
2021/03/03 05:01:41;;;;;;;15.70;7.15;;;;;;;0.96;73.32;98278.69;5106706;28;20443;-67
2021/03/03 05:04:07;;;;;;;22.60;10.73;;;;;;;0.48;71.52;98194.03;5107048;28;20519;-66
2021/03/03 05:06:36;;;;;;;24.10;9.80;;;;;;;-0.56;73.49;98099.50;5106950;28;20343;-67
2021/03/03 05:09:02;;;;;;;23.13;10.02;;;;;;;-0.29;72.10;98107.34;5088663;28;20046;-67
2021/03/03 05:11:29;;;;;;;26.35;10.85;;;;;;;0.92;72.14;98290.41;5106096;28;20051;-66
2021/03/03 05:13:54;;;;;;;31.55;14.88;;;;;;;0.77;72.94;98268.66;5105180;28;20061;-65
2021/03/03 05:16:20;;;;;;;32.65;13.10;;;;;;;0.93;72.60;98298.31;5084712;28;20085;-64
2021/03/03 05:18:46;;;;;;;41.78;19.13;;;;;;;0.59;73.33;98244.69;5086016;28;20036;-65
2021/03/03 05:21:12;;;;;;;57.67;24.10;;;;;;;1.02;73.52;98293.09;5086202;28;20024;-66
2021/03/03 05:23:38;;;;;;;155.77;55.15;;;;;;;1.00;73.57;98296.13;5067952;28;20036;-67
2021/03/03 05:26:05;;;;;;;70.68;28.27;;;;;;;0.84;71.92;98250.91;5085787;28;20035;-67
2021/03/03 05:28:33;;;;;;;83.20;34.58;;;;;;;1.16;72.75;98305.06;5086020;28;20443;-69
2021/03/03 05:30:59;;;;;;;74.55;29.30;;;;;;;0.77;73.17;98236.75;5085937;28;20028;-65
2021/03/03 05:33:29;;;;;;;63.70;22.70;;;;;;;1.24;72.84;98286.19;5085707;28;20251;-66
2021/03/03 05:35:56;;;;;;;48.30;21.38;;;;;;;1.39;73.06;98299.75;5084742;28;20036;-65
2021/03/03 05:38:22;;;;;;;38.70;18.33;;;;;;;1.30;72.77;98279.59;5067489;28;20442;-65
2021/03/03 05:40:50;;;;;;;43.63;19.25;;;;;;;1.54;73.15;98290.66;5085456;28;20028;-66
2021/03/03 05:43:16;;;;;;;141.10;51.83;;;;;;;1.29;73.15;98222.59;5085683;28;20047;-65
2021/03/03 05:45:43;;;;;;;120.38;52.65;;;;;;;1.82;72.17;98294.59;5067771;28;20024;-65
2021/03/03 05:48:36;;;;;;;85.65;35.42;;;;;;;2.05;71.56;98299.34;5085304;28;20468;-66
2021/03/03 05:51:04;;;;;;;78.53;36.55;;;;;;;1.84;70.24;98267.81;5080210;28;20109;-65
2021/03/03 05:53:31;;;;;;;73.45;32.35;;;;;;;1.55;69.12;98178.44;5067194;28;20047;-65
2021/03/03 05:55:58;;;;;;;66.85;31.13;;;;;;;2.29;69.43;98278.38;5085193;28;20491;-65
2021/03/03 05:58:27;;;;;;;71.95;33.25;;;;;;;2.69;69.12;98302.59;5085360;28;20551;-65
2021/03/03 06:00:56;;;;;;;121.43;52.53;;;;;;;2.09;67.26;98199.28;5066223;28;20039;-65
2021/03/03 06:03:23;;;;;;;90.35;41.25;;;;;;;3.01;66.22;98308.28;5085591;28;20047;-65
2021/03/03 06:05:48;;;;;;;85.50;43.15;;;;;;;2.80;66.91;98277.59;5085713;28;20032;-65
2021/03/03 06:08:18;;;;;;;74.10;38.67;;;;;;;3.44;65.72;98315.44;5085234;28;20036;-66
2021/03/03 06:10:45;;;;;;;75.13;34.78;;;;;;;3.55;64.22;98295.00;5066926;28;20498;-67
2021/03/03 06:13:12;;;;;;;62.15;28.50;;;;;;;3.76;64.05;98315.50;5085283;28;20543;-66
2021/03/03 06:15:38;;;;;;;50.38;25.65;;;;;;;3.98;62.49;98307.50;5087860;28;20119;-67
2021/03/03 06:18:06;;;;;;;50.72;26.52;;;;;;;3.37;62.02;98254.72;5105537;28;20526;-65
2021/03/03 06:20:37;;;;;;;43.45;23.50;;;;;;;3.46;61.95;98216.53;5104914;28;20483;-65
2021/03/03 06:23:19;;;;;;;43.80;22.65;;;;;;;4.23;61.04;98318.13;5087364;28;20064;-65
2021/03/03 06:25:49;;;;;;;48.45;23.05;;;;;;;3.78;61.62;98190.00;5086912;28;20027;-65
2021/03/03 06:28:32;;;;;;;38.80;18.65;;;;;;;4.76;60.68;98309.53;5104910;28;20477;-68
2021/03/03 06:30:58;;;;;;;49.30;22.77;;;;;;;5.03;59.40;98310.38;5086848;28;20028;-67
2021/03/03 06:33:25;;;;;;;47.30;24.27;;;;;;;5.26;59.28;98303.09;5104998;28;20036;-66
2021/03/03 06:35:54;;;;;;;41.80;24.60;;;;;;;4.79;57.37;98210.13;5103676;28;20059;-66
2021/03/03 06:38:28;;;;;;;49.63;26.15;;;;;;;5.08;58.42;98268.28;5086477;28;20035;-66
2021/03/03 06:41:00;;;;;;;60.22;32.13;;;;;;;4.51;57.44;98116.81;5105256;28;20032;-66
2021/03/03 06:43:30;;;;;;;85.85;43.28;;;;;;;4.99;56.07;98146.56;5086198;28;20036;-66
2021/03/03 06:46:13;;;;;;;71.07;31.55;;;;;;;6.21;56.03;98306.50;5104289;28;20429;-66
2021/03/03 06:48:41;;;;;;;33.15;17.45;;;;;;;5.41;57.21;98151.66;5086470;28;20486;-66
2021/03/03 06:51:33;;;;;;;19.23;11.43;;;;;;;6.52;55.34;98309.31;5104714;28;20391;-67
2021/03/03 06:54:01;;;;;;;15.25;8.30;;;;;;;6.41;55.05;98275.75;5102735;28;20126;-66
2021/03/03 06:56:36;;;;;;;54.50;24.83;;;;;;;6.89;55.50;98312.47;5104379;28;20155;-67
2021/03/03 06:59:14;;;;;;;21.77;11.57;;;;;;;6.63;55.03;98231.69;5104853;28;20031;-66
2021/03/03 07:01:41;;;;;;;40.00;20.58;;;;;;;7.04;54.40;98279.03;5104646;28;20031;-66
2021/03/03 07:04:30;;;;;;;40.42;21.92;;;;;;;7.27;54.03;98288.03;5104764;28;20063;-66
2021/03/03 07:07:00;;;;;;;41.92;24.15;;;;;;;7.01;53.44;98202.53;5086083;28;20042;-66
2021/03/03 07:09:37;;;;;;;32.92;19.95;;;;;;;7.88;52.59;98300.84;5104335;28;20078;-66
2021/03/03 07:12:06;;;;;;;33.85;21.38;;;;;;;8.15;52.11;98303.31;5085483;28;20031;-67
2021/03/03 07:14:32;;;;;;;34.95;22.75;;;;;;;8.34;51.63;98301.06;5103029;28;20126;-70
2021/03/03 07:17:18;;;;;;;34.38;20.30;;;;;;;8.54;50.77;98294.88;5085505;28;20138;-67
2021/03/03 07:19:48;;;;;;;39.50;22.45;;;;;;;7.29;50.54;98082.63;5104455;28;20066;-68
2021/03/03 07:22:24;;;;;;;37.83;22.05;;;;;;;8.91;49.59;98294.19;5104014;28;20077;-66
2021/03/03 07:25:11;;;;;;;39.08;21.55;;;;;;;9.21;49.30;98288.38;5085947;28;20037;-66
2021/03/03 07:27:38;;;;;;;22.10;13.63;;;;;;;8.95;49.64;98265.56;5104215;28;20048;-66
2021/03/03 07:30:10;;;;;;;24.48;12.88;;;;;;;8.56;49.24;98168.34;5103754;28;20039;-67
2021/03/03 07:32:36;;;;;;;24.52;13.45;;;;;;;9.44;48.26;98280.63;5085540;28;20172;-68
2021/03/03 07:35:04;;;;;;;24.98;12.38;;;;;;;9.55;49.17;98276.34;5104039;28;20028;-66
2021/03/03 07:37:39;;;;;;;19.42;10.57;;;;;;;9.72;48.37;98276.25;5086131;28;20172;-67
2021/03/03 07:40:12;;;;;;;19.52;11.40;;;;;;;9.90;48.75;98280.53;5085275;28;20039;-67
2021/03/03 07:42:45;;;;;;;22.92;11.70;;;;;;;9.59;48.76;98235.00;5103737;28;20498;-66
2021/03/03 07:45:13;;;;;;;19.30;10.65;;;;;;;9.96;48.22;98273.66;5103284;28;20119;-66
2021/03/03 07:47:41;;;;;;;22.17;10.85;;;;;;;9.83;47.64;98199.22;5102822;28;20501;-68
2021/03/03 07:50:15;;;;;;;23.75;11.07;;;;;;;10.45;47.87;98278.34;5102217;28;20046;-66
2021/03/03 07:52:53;;;;;;;23.08;11.35;;;;;;;10.66;46.75;98273.59;5102545;28;20110;-68
2021/03/03 07:55:19;;;;;;;16.17;10.45;;;;;;;10.78;47.53;98269.25;5103894;28;20039;-67
2021/03/03 07:57:52;;;;;;;20.35;10.25;;;;;;;10.61;47.48;98210.06;5085648;28;20044;-68
2021/03/03 08:00:24;;;;;;;18.10;9.88;;;;;;;11.29;46.75;98271.41;5103393;28;20462;-67
2021/03/03 08:02:53;;;;;;;17.70;10.50;;;;;;;11.30;46.56;98253.63;5085202;28;20038;-66
2021/03/03 08:05:27;;;;;;;15.32;8.48;;;;;;;11.64;45.64;98270.69;5103521;28;20035;-67
2021/03/03 08:08:08;;;;;;;18.67;9.77;;;;;;;11.86;45.09;98272.16;5103318;28;20123;-66
2021/03/03 08:10:38;;;;;;;14.48;8.45;;;;;;;12.03;44.41;98283.81;5103322;28;20066;-67
2021/03/03 08:13:09;;;;;;;15.65;8.20;;;;;;;12.16;43.04;98256.81;5085187;28;20040;-65
2021/03/03 08:15:45;;;;;;;14.82;7.55;;;;;;;12.43;42.36;98269.94;5103228;28;20107;-65
2021/03/03 08:18:15;;;;;;;13.27;7.43;;;;;;;12.56;41.93;98276.28;5103512;28;20066;-65
2021/03/03 08:20:42;;;;;;;11.27;7.05;;;;;;;12.67;41.61;98275.44;5085097;28;20035;-67
2021/03/03 08:23:08;;;;;;;13.05;7.25;;;;;;;12.67;41.29;98280.16;5084727;28;20585;-66
2021/03/03 08:25:46;;;;;;;13.85;7.68;;;;;;;12.30;40.85;98181.44;5106451;28;20023;-67
2021/03/03 08:28:29;;;;;;;15.45;7.70;;;;;;;13.14;40.85;98270.00;5107613;28;20042;-67
2021/03/03 08:31:10;;;;;;;14.03;8.63;;;;;;;13.23;40.86;98263.09;5089512;28;20074;-66
2021/03/03 08:33:49;;;;;;;12.48;8.55;;;;;;;13.36;40.66;98261.03;5088893;28;20426;-68
2021/03/03 08:36:18;;;;;;;11.43;7.97;;;;;;;13.57;39.53;98265.16;5107107;28;20088;-66
2021/03/03 08:38:45;;;;;;;12.00;6.78;;;;;;;13.70;38.51;98261.09;5107288;28;20040;-67
2021/03/03 08:41:16;;;;;;;12.95;6.90;;;;;;;13.58;38.29;98255.66;5088653;28;20452;-67
2021/03/03 08:43:47;;;;;;;13.30;8.00;;;;;;;13.57;38.80;98259.59;5107626;28;20100;-66
2021/03/03 08:46:21;;;;;;;11.65;7.45;;;;;;;13.62;39.02;98262.09;5089069;28;20070;-67
2021/03/03 08:48:52;;;;;;;11.18;5.93;;;;;;;13.82;35.32;98253.81;5089384;28;20493;-66
2021/03/03 08:51:32;;;;;;;9.90;5.80;;;;;;;12.87;34.75;98174.28;5107724;28;20244;-65
2021/03/03 08:54:01;;;;;;;12.07;6.35;;;;;;;13.55;34.67;98256.38;5088383;28;20111;-65
2021/03/03 08:56:40;;;;;;;10.88;5.88;;;;;;;13.70;34.88;98263.88;5088394;28;20035;-66
2021/03/03 08:59:10;;;;;;;8.05;5.50;;;;;;;13.76;35.16;98256.06;5088861;28;20281;-66
2021/03/03 09:01:57;;;;;;;9.52;6.00;;;;;;;13.94;33.76;98262.84;5106754;28;20039;-67
2021/03/03 09:04:31;;;;;;;11.60;5.78;;;;;;;13.86;34.39;98260.28;5106758;28;20035;-67
2021/03/03 09:07:07;;;;;;;9.30;6.63;;;;;;;14.09;33.81;98252.84;5088277;28;20066;-68
2021/03/03 09:09:38;;;;;;;7.88;5.53;;;;;;;14.05;34.13;98260.34;5106920;28;20039;-67
2021/03/03 09:12:06;;;;;;;11.23;6.43;;;;;;;14.19;33.53;98247.53;5088232;28;20585;-66
2021/03/03 09:14:36;;;;;;;11.23;5.22;;;;;;;13.86;33.69;98252.75;5088318;28;20039;-67
2021/03/03 09:17:05;;;;;;;13.95;7.40;;;;;;;13.40;34.28;98215.41;5087606;28;20043;-66
2021/03/03 09:19:32;;;;;;;8.45;5.50;;;;;;;13.32;33.31;98185.81;5106257;28;20573;-66
2021/03/03 09:21:59;;;;;;;8.10;5.20;;;;;;;13.45;33.37;98145.56;5088150;28;20023;-67
2021/03/03 09:24:29;;;;;;;7.68;4.60;;;;;;;14.01;32.81;98251.88;5088364;28;20035;-66
2021/03/03 09:27:08;;;;;;;10.65;6.18;;;;;;;14.34;33.19;98265.38;5088058;28;20031;-67
2021/03/03 09:29:37;;;;;;;14.82;7.30;;;;;;;14.29;32.97;98235.03;5105120;28;20039;-67
2021/03/03 09:32:06;;;;;;;12.13;6.43;;;;;;;13.55;32.08;98078.19;5088051;28;20884;-66
2021/03/03 09:34:34;;;;;;;9.15;5.70;;;;;;;14.06;31.05;98159.66;5088156;28;20039;-66
2021/03/03 09:37:02;;;;;;;6.75;5.30;;;;;;;14.79;31.16;98232.91;5087799;28;20024;-66
2021/03/03 09:39:29;;;;;;;5.70;4.22;;;;;;;14.59;29.95;98234.06;5106229;28;20043;-68
2021/03/03 09:41:59;;;;;;;7.60;5.85;;;;;;;14.92;30.61;98230.75;5087245;28;20028;-66
2021/03/03 09:44:26;;;;;;;5.05;4.55;;;;;;;14.28;30.62;98194.38;5105912;28;20036;-70
2021/03/03 09:46:56;;;;;;;10.90;6.32;;;;;;;14.81;30.36;98235.31;5106306;28;20031;-69
2021/03/03 09:49:30;;;;;;;7.90;4.93;;;;;;;15.09;29.83;98207.94;5088189;28;20055;-69
2021/03/03 09:51:57;;;;;;;8.10;4.70;;;;;;;15.46;28.91;98205.44;5105907;28;20034;-69
2021/03/03 09:54:28;;;;;;;9.50;4.50;;;;;;;15.36;29.28;98150.97;5087625;28;20073;-69
2021/03/03 09:56:54;;;;;;;7.20;4.93;;;;;;;15.77;28.58;98217.09;5105908;28;20027;-69
2021/03/03 09:59:20;;;;;;;5.47;4.18;;;;;;;15.33;28.04;98139.75;5106160;28;20409;-69
2021/03/03 10:01:46;;;;;;;5.60;4.28;;;;;;;15.63;27.70;98216.88;5087495;28;20088;-69
2021/03/03 10:04:14;;;;;;;5.63;4.28;;;;;;;15.70;27.75;98180.66;5105963;28;20040;-69
2021/03/03 10:06:43;;;;;;;6.30;4.88;;;;;;;16.09;28.03;98212.00;5088059;28;20510;-69
2021/03/03 10:09:11;;;;;;;6.90;4.88;;;;;;;13.36;27.90;97763.69;5105487;28;20100;-68
2021/03/03 10:11:37;;;;;;;5.93;5.00;;;;;;;15.92;27.76;98115.53;5086833;28;20489;-69
2021/03/03 10:14:09;;;;;;;20.67;10.68;;;;;;;16.70;28.41;98215.22;5087260;28;20023;-67
2021/03/03 10:16:35;;;;;;;9.77;6.43;;;;;;;15.85;28.14;98109.84;5086626;28;20052;-68
2021/03/03 10:19:05;;;;;;;8.95;6.53;;;;;;;16.46;28.33;98174.56;5105296;28;20065;-69
2021/03/03 10:21:31;;;;;;;7.72;5.63;;;;;;;16.76;27.58;98184.88;5087126;28;20395;-69
2021/03/03 10:23:57;;;;;;;8.43;4.80;;;;;;;16.34;28.02;98202.72;5105961;28;20125;-69
2021/03/03 10:26:40;;;;;;;4.93;4.50;;;;;;;16.64;27.36;98183.94;5105347;28;20130;-72
2021/03/03 10:29:07;;;;;;;6.72;4.88;;;;;;;17.04;27.42;98196.41;5105109;28;20502;-68
2021/03/03 10:31:33;;;;;;;8.57;5.00;;;;;;;16.36;28.41;98138.06;5105003;28;20031;-70
2021/03/03 10:34:10;;;;;;;6.82;5.55;;;;;;;16.52;28.56;98187.03;5086983;28;20485;-70
2021/03/03 10:36:41;;;;;;;7.15;5.80;;;;;;;16.78;28.29;98190.91;5086980;28;20151;-70
2021/03/03 10:39:09;;;;;;;6.90;5.32;;;;;;;16.89;28.45;98161.03;5100217;28;20039;-69
2021/03/03 10:41:36;;;;;;;10.13;6.72;;;;;;;17.16;27.34;98180.13;5103304;28;20027;-70
2021/03/03 10:44:04;;;;;;;8.25;5.25;;;;;;;16.74;28.18;98173.28;5105012;28;20092;-69
2021/03/03 10:46:30;;;;;;;9.52;5.90;;;;;;;16.85;28.56;98168.59;5104690;28;20028;-69
2021/03/03 10:49:11;;;;;;;6.80;5.70;;;;;;;17.01;27.44;98157.97;5104717;28;20418;-70
2021/03/03 10:51:38;;;;;;;6.30;5.22;;;;;;;16.35;28.37;98142.03;5103546;28;20032;-69
2021/03/03 10:54:04;;;;;;;7.25;5.90;;;;;;;16.90;28.45;98151.47;5085731;28;20529;-69
2021/03/03 10:56:33;;;;;;;7.13;4.95;;;;;;;16.71;27.49;98115.28;5104390;28;20034;-69
2021/03/03 10:59:09;;;;;;;8.02;5.80;;;;;;;16.18;28.47;98062.34;5103523;28;20037;-69
2021/03/03 11:01:43;;;;;;;6.57;5.40;;;;;;;16.69;27.38;98140.03;5104191;28;20032;-70
2021/03/03 11:04:09;;;;;;;;;;;;;;;16.69;28.02;98140.03;5104971;28;20055;-69
2021/03/03 11:06:36;;;;;;;6.95;4.63;;;;;;;16.82;27.87;98133.00;5104081;28;19966;-70
2021/03/03 11:09:15;;;;;;;8.40;6.63;;;;;;;17.05;27.92;98119.59;5104270;28;20046;-70
2021/03/03 11:11:52;;;;;;;6.30;5.40;;;;;;;17.33;26.97;98119.84;5104450;28;20460;-70
2021/03/03 11:14:18;;;;;;;6.78;5.43;;;;;;;16.85;27.68;98104.22;5086058;28;20123;-71
2021/03/03 11:16:47;;;;;;;7.75;5.85;;;;;;;16.88;28.35;98148.25;5104275;28;20040;-70
2021/03/03 11:19:13;;;;;;;6.30;5.28;;;;;;;16.78;27.92;98109.75;5104637;28;20043;-70
2021/03/03 11:21:39;;;;;;;9.10;6.20;;;;;;;16.51;27.86;98037.16;5104430;28;20172;-70
2021/03/03 11:24:09;;;;;;;9.63;7.20;;;;;;;16.62;27.93;97989.69;5104310;28;20041;-70
2021/03/03 11:26:39;;;;;;;6.25;5.65;;;;;;;17.20;27.82;98101.75;5086101;28;20023;-72
2021/03/03 11:29:06;;;;;;;5.28;4.78;;;;;;;16.71;27.78;98098.50;5085160;28;20417;-70
2021/03/03 11:31:32;;;;;;;7.72;4.90;;;;;;;16.67;28.24;98100.44;5103522;28;20038;-69
2021/03/03 11:33:59;;;;;;;8.55;7.13;;;;;;;16.88;28.11;98109.06;5085399;28;20039;-69
2021/03/03 11:36:25;;;;;;;5.97;4.78;;;;;;;16.76;28.34;98092.53;5103899;28;20088;-70
2021/03/03 11:38:51;;;;;;;11.18;7.97;;;;;;;17.10;27.75;98082.84;5084956;28;20039;-73